Terminal Aerodrome Forecast
Issued by NWS

Home | Current Version | Previous Version | Text Only | Print | Product List | Glossary On
Versions: 1 2 3 4 5 6 7 8 9 10 11 12 13 14 15
000
FTUS41 KBTV 050520
TAFMPV
TAF
KMPV 050520Z 0506/0606 00000KT P6SM BKN200
     FM051000 VRB03KT P6SM VCSH OVC100
     FM051100 15004KT 3SM -SN BR OVC050
     FM051200 15004KT 1SM -SN BR OVC020
     FM052100 VRB03KT 6SM -SHSN OVC020
     FM060300 31005KT P6SM BKN015=

USA.gov is the U.S. government's official web portal to all federal, state and local government web resources and services.